Time;durP1;ratioP1;P1;durP2;ratioP2;P2;SDS_P1;SDS_P2;PMS_P1;PMS_P2;Temp;Humidity;BMP_temperature;BMP_pressure;BME280_temperature;BME280_humidity;BME280_pressure;Samples;Min_cycle;Max_cycle;Signal;HPM_P1;HPM_P2
2022/12/20 00:01:24;;;;;;;8.33;1.87;;;24.50;99.90;;;;;;4936410;29;20717;-71
2022/12/20 00:03:54;;;;;;;4.73;1.40;;;24.20;99.90;;;;;;4935490;29;20222;-68
2022/12/20 00:06:22;;;;;;;12.20;1.33;;;24.00;99.90;;;;;;4936465;29;20586;-70
2022/12/20 00:09:00;;;;;;;4.07;1.50;;;24.60;99.90;;;;;;4936184;29;20203;-68
2022/12/20 00:11:29;;;;;;;6.23;1.13;;;24.80;99.90;;;;;;4936541;29;20175;-67
2022/12/20 00:13:57;;;;;;;6.57;1.67;;;24.80;99.90;;;;;;4936337;29;20803;-68
2022/12/20 00:16:27;;;;;;;5.47;1.53;;;24.80;99.90;;;;;;4954460;29;20176;-79
2022/12/20 00:18:58;;;;;;;5.27;1.53;;;25.30;99.90;;;;;;4941076;29;20267;-73
2022/12/20 00:21:26;;;;;;;5.63;1.70;;;26.00;99.90;;;;;;4940173;29;20237;-68
2022/12/20 00:23:55;;;;;;;5.77;1.90;;;26.60;99.90;;;;;;4938291;29;20553;-76
2022/12/20 00:26:27;;;;;;;2.77;1.10;;;26.70;99.90;;;;;;4935083;29;20220;-71
2022/12/20 00:28:56;;;;;;;6.47;1.40;;;25.90;99.00;;;;;;4936675;29;20199;-70
2022/12/20 00:31:25;;;;;;;9.50;1.53;;;25.30;99.90;;;;;;4943943;29;20222;-70
2022/12/20 00:33:55;;;;;;;6.13;1.50;;;24.60;99.90;;;;;;4955551;29;20175;-69
2022/12/20 00:36:24;;;;;;;8.80;1.43;;;24.20;99.90;;;;;;4954950;28;20799;-70
2022/12/20 00:38:54;;;;;;;6.40;1.33;;;24.10;99.90;;;;;;4955558;29;20238;-70
2022/12/20 00:41:25;;;;;;;4.13;1.33;;;23.70;99.90;;;;;;4955085;29;20206;-72
2022/12/20 00:43:53;;;;;;;8.70;1.73;;;23.40;99.90;;;;;;4954012;29;20194;-69
2022/12/20 00:46:22;;;;;;;3.17;1.20;;;23.40;99.90;;;;;;4941487;29;20587;-69
2022/12/20 00:48:50;;;;;;;6.10;1.43;;;23.60;99.90;;;;;;4934854;29;20205;-69
2022/12/20 00:51:20;;;;;;;6.67;1.07;;;23.60;99.90;;;;;;4935913;29;20252;-75
2022/12/20 00:53:49;;;;;;;8.13;1.97;;;23.70;99.90;;;;;;4935687;29;20231;-70
2022/12/20 00:56:17;;;;;;;7.07;1.63;;;23.60;99.90;;;;;;4917934;29;20250;-69
2022/12/20 00:58:45;;;;;;;7.40;1.80;;;23.40;99.90;;;;;;4935915;29;20658;-71
2022/12/20 01:01:25;;;;;;;5.33;1.40;;;23.20;99.90;;;;;;4935820;29;20658;-69
2022/12/20 01:03:54;;;;;;;10.40;1.40;;;22.70;99.90;;;;;;4936359;29;20183;-68
2022/12/20 01:06:23;;;;;;;7.50;1.23;;;22.40;99.90;;;;;;4936773;29;20998;-69
2022/12/20 01:08:51;;;;;;;9.47;1.77;;;22.10;99.90;;;;;;4933548;29;20193;-69
2022/12/20 01:11:21;;;;;;;6.53;1.30;;;21.80;99.90;;;;;;4935363;29;20677;-71
2022/12/20 01:13:52;;;;;;;6.77;1.47;;;21.90;99.90;;;;;;4935583;29;20184;-68
2022/12/20 01:16:29;;;;;;;5.10;1.10;;;22.00;99.90;;;;;;4934759;29;20535;-75
2022/12/20 01:18:57;;;;;;;6.17;1.80;;;21.90;99.90;;;;;;4935192;29;20728;-69
2022/12/20 01:21:26;;;;;;;2.97;1.50;;;22.00;99.90;;;;;;4935489;29;20681;-76
2022/12/20 01:23:55;;;;;;;5.67;1.47;;;21.90;99.90;;;;;;4934842;29;20948;-73
2022/12/20 01:26:25;;;;;;;6.97;1.30;;;21.60;99.90;;;;;;4915232;29;20224;-68
2022/12/20 01:28:56;;;;;;;4.57;1.20;;;21.60;99.90;;;;;;4921403;29;20181;-68
2022/12/20 01:31:25;;;;;;;5.40;1.53;;;21.50;99.90;;;;;;4935209;29;20266;-68
2022/12/20 01:33:53;;;;;;;7.10;1.23;;;21.50;99.90;;;;;;4955248;29;20176;-70
2022/12/20 01:36:24;;;;;;;7.13;1.50;;;21.30;99.90;;;;;;4938496;29;20188;-68
2022/12/20 01:38:56;;;;;;;5.23;1.83;;;21.30;99.90;;;;;;4933781;29;20186;-72
2022/12/20 01:41:25;;;;;;;6.67;1.37;;;21.30;99.90;;;;;;4935379;29;20268;-70
2022/12/20 01:44:15;;;;;;;5.70;1.37;;;21.10;99.90;;;;;;4934425;29;20666;-69
2022/12/20 01:46:44;;;;;;;4.43;1.30;;;21.10;99.90;;;;;;4903446;29;20278;-68
2022/12/20 01:49:22;;;;;;;7.47;1.50;;;21.20;99.90;;;;;;4933745;29;20181;-68
2022/12/20 01:52:06;;;;;;;7.67;1.27;;;21.20;99.90;;;;;;4934900;29;20561;-67
2022/12/20 01:54:45;;;;;;;8.77;2.37;;;21.20;99.90;;;;;;4934197;29;20737;-71
2022/12/20 01:57:24;;;;;;;5.43;1.30;;;21.20;99.90;;;;;;4934967;29;20188;-74
2022/12/20 01:59:54;;;;;;;3.47;1.10;;;21.30;99.90;;;;;;4934589;29;20229;-69
2022/12/20 02:02:22;;;;;;;6.47;1.67;;;21.40;99.90;;;;;;4933978;29;20189;-69
2022/12/20 02:04:50;;;;;;;4.10;1.00;;;21.40;99.90;;;;;;4934115;29;20186;-68
2022/12/20 02:07:23;;;;;;;6.83;1.30;;;21.30;99.90;;;;;;4933271;29;20228;-69
2022/12/20 02:09:52;;;;;;;5.87;1.37;;;21.40;99.90;;;;;;4932652;29;20184;-69
2022/12/20 02:12:25;;;;;;;4.33;1.33;;;21.50;99.90;;;;;;4934355;29;20185;-70
2022/12/20 02:15:17;;;;;;;9.17;1.60;;;21.70;99.90;;;;;;4926497;29;20181;-69
2022/12/20 02:17:50;;;;;;;8.43;1.50;;;21.70;99.90;;;;;;4933663;29;20184;-68
2022/12/20 02:20:29;;;;;;;4.80;1.20;;;21.70;99.90;;;;;;4934080;29;20615;-69
2022/12/20 02:23:20;;;;;;;4.90;1.40;;;21.70;99.90;;;;;;4933711;29;20271;-69
2022/12/20 02:26:24;;;;;;;8.67;1.33;;;21.90;99.90;;;;;;4932489;29;20216;-71
2022/12/20 02:29:00;;;;;;;6.53;1.57;;;22.00;99.90;;;;;;4933742;29;20287;-69
2022/12/20 02:31:33;;;;;;;6.87;1.50;;;22.20;99.90;;;;;;4934105;29;20188;-68
2022/12/20 02:34:03;;;;;;;11.73;2.13;;;22.10;99.90;;;;;;4933828;29;20639;-69
2022/12/20 02:36:30;;;;;;;6.17;1.70;;;22.00;99.90;;;;;;4917053;29;20200;-68
2022/12/20 02:38:57;;;;;;;6.90;1.80;;;21.90;99.90;;;;;;4933276;29;20191;-69
2022/12/20 02:41:51;;;;;;;5.87;1.23;;;21.90;99.90;;;;;;4934022;29;20195;-68
2022/12/20 02:47:53;;;;;;;9.90;1.70;;;21.90;99.90;;;;;;4856725;29;20242;-68
2022/12/20 02:50:51;;;;;;;4.10;1.27;;;22.00;99.90;;;;;;4934031;29;20184;-68
2022/12/20 02:53:19;;;;;;;9.07;1.83;;;22.00;99.90;;;;;;4922340;29;20271;-68
2022/12/20 02:56:12;;;;;;;5.00;1.30;;;22.10;99.90;;;;;;4933694;29;20536;-70
2022/12/20 02:58:47;;;;;;;2.90;1.40;;;22.30;99.90;;;;;;4934040;29;20547;-71
2022/12/20 03:01:53;;;;;;;5.83;1.50;;;22.60;99.90;;;;;;4937110;29;20206;-67
2022/12/20 03:04:30;;;;;;;6.30;1.50;;;22.70;99.90;;;;;;4937379;29;20282;-68
2022/12/20 03:06:57;;;;;;;7.17;1.53;;;22.90;99.90;;;;;;4937515;29;20230;-67
2022/12/20 03:09:25;;;;;;;8.53;1.53;;;23.10;99.90;;;;;;4919759;29;20199;-67
2022/12/20 03:11:53;;;;;;;4.03;1.27;;;23.20;99.90;;;;;;4937779;29;20888;-66
2022/12/20 03:14:21;;;;;;;5.03;1.27;;;23.50;99.90;;;;;;4937483;29;20665;-68
2022/12/20 03:16:48;;;;;;;6.43;1.80;;;23.80;99.90;;;;;;4937195;29;20192;-67
2022/12/20 03:19:16;;;;;;;4.43;1.73;;;23.80;99.90;;;;;;4937084;29;20184;-68
2022/12/20 03:21:43;;;;;;;9.33;1.63;;;23.80;99.90;;;;;;4937316;29;20208;-69
2022/12/20 03:24:12;;;;;;;6.20;1.47;;;24.00;99.90;;;;;;4936796;29;20192;-68
2022/12/20 03:26:40;;;;;;;4.93;1.10;;;23.90;99.90;;;;;;4929567;29;20594;-71
2022/12/20 03:29:08;;;;;;;6.50;1.33;;;23.60;99.90;;;;;;4937383;29;20203;-68
2022/12/20 03:31:36;;;;;;;10.60;1.97;;;23.30;99.90;;;;;;4935961;29;20192;-68
2022/12/20 03:34:04;;;;;;;5.63;1.20;;;23.20;99.90;;;;;;4935940;29;20185;-71
2022/12/20 03:36:31;;;;;;;6.17;1.70;;;23.10;99.90;;;;;;4937379;29;20279;-69
2022/12/20 03:38:59;;;;;;;6.97;1.23;;;23.00;99.90;;;;;;4936682;29;20249;-68
2022/12/20 03:41:27;;;;;;;8.50;1.20;;;23.20;99.90;;;;;;4936957;29;20638;-68
2022/12/20 03:43:54;;;;;;;6.60;1.43;;;23.40;99.90;;;;;;4937102;29;20217;-70
2022/12/20 03:46:22;;;;;;;3.90;1.23;;;23.60;99.90;;;;;;4936505;29;20212;-69
2022/12/20 03:48:49;;;;;;;8.17;1.70;;;23.80;99.90;;;;;;4937378;29;20319;-69
2022/12/20 03:51:16;;;;;;;3.97;1.20;;;24.00;99.90;;;;;;4937352;29;20212;-67
2022/12/20 03:53:44;;;;;;;3.37;1.00;;;24.20;99.90;;;;;;4936420;29;20220;-68
2022/12/20 03:56:11;;;;;;;5.27;1.13;;;24.30;99.90;;;;;;4935664;29;20184;-68
2022/12/20 03:58:39;;;;;;;3.83;1.40;;;24.40;99.90;;;;;;4936867;29;20670;-67
2022/12/20 04:01:19;;;;;;;5.00;1.40;;;24.10;99.90;;;;;;4936446;29;20264;-69
2022/12/20 04:03:46;;;;;;;8.63;1.50;;;24.00;99.90;;;;;;4936515;29;20275;-68
2022/12/20 04:06:14;;;;;;;6.00;1.47;;;23.60;99.90;;;;;;4936908;29;20287;-68
2022/12/20 04:08:41;;;;;;;3.97;1.17;;;23.30;99.90;;;;;;4936601;29;20196;-68
2022/12/20 04:11:18;;;;;;;5.43;1.53;;;23.20;99.90;;;;;;4935451;29;20189;-68
2022/12/20 04:13:49;;;;;;;6.20;1.63;;;23.30;99.90;;;;;;4936368;29;20614;-70
2022/12/20 04:16:19;;;;;;;4.07;1.23;;;23.10;99.90;;;;;;4936356;29;20191;-68
2022/12/20 04:18:47;;;;;;;5.40;1.27;;;22.80;99.90;;;;;;4919456;29;20251;-68
2022/12/20 04:21:14;;;;;;;6.00;1.47;;;22.70;99.90;;;;;;4935814;29;20194;-67
2022/12/20 04:23:43;;;;;;;6.90;1.30;;;22.80;99.90;;;;;;4936337;29;20191;-68
2022/12/20 04:26:12;;;;;;;6.60;1.43;;;22.60;99.90;;;;;;4932829;29;20264;-68
2022/12/20 04:28:39;;;;;;;5.90;1.00;;;22.50;99.90;;;;;;4935917;29;20214;-67
2022/12/20 04:31:06;;;;;;;4.63;1.30;;;22.70;99.90;;;;;;4936191;29;20188;-68
2022/12/20 04:33:34;;;;;;;5.97;1.10;;;23.30;99.90;;;;;;4918793;29;20211;-69
2022/12/20 04:36:02;;;;;;;7.70;1.63;;;23.50;99.90;;;;;;4936089;29;20202;-68
2022/12/20 04:38:29;;;;;;;4.17;1.00;;;23.70;99.90;;;;;;4936292;29;20191;-72
2022/12/20 04:40:57;;;;;;;5.87;1.50;;;24.40;99.90;;;;;;4934448;29;20596;-70
2022/12/20 04:43:24;;;;;;;4.40;1.20;;;24.20;99.90;;;;;;4936064;29;20185;-69
2022/12/20 04:45:56;;;;;;;2.93;1.10;;;23.80;99.90;;;;;;4935012;29;20234;-68
2022/12/20 04:48:26;;;;;;;6.93;1.30;;;23.50;99.90;;;;;;4935703;29;20280;-66
2022/12/20 04:50:54;;;;;;;4.67;1.30;;;23.40;99.90;;;;;;4935536;29;20210;-68
2022/12/20 04:56:10;;;;;;;6.10;1.33;;;23.20;99.90;;;;;;4936137;29;20246;-67
2022/12/20 04:58:37;;;;;;;7.23;1.33;;;23.30;99.90;;;;;;4935363;29;20192;-66
2022/12/20 05:01:04;;;;;;;4.00;1.17;;;23.10;99.90;;;;;;4935780;29;20185;-66
2022/12/20 05:03:32;;;;;;;8.33;1.60;;;23.20;99.90;;;;;;4935611;29;20176;-67
2022/12/20 05:05:59;;;;;;;6.00;1.40;;;23.30;99.90;;;;;;4935347;29;20279;-68
2022/12/20 05:08:27;;;;;;;5.73;1.30;;;23.40;99.90;;;;;;4935248;29;20275;-68
2022/12/20 05:10:54;;;;;;;8.43;1.57;;;23.20;99.90;;;;;;4935834;29;20237;-67
2022/12/20 05:13:22;;;;;;;10.37;1.00;;;23.20;99.90;;;;;;4934687;29;20700;-66
2022/12/20 05:15:54;;;;;;;5.80;1.27;;;23.30;99.90;;;;;;4935094;29;20191;-66
2022/12/20 05:18:22;;;;;;;4.90;1.03;;;24.00;99.90;;;;;;4935562;29;20180;-67
2022/12/20 05:26:16;;;;;;;5.33;1.10;;;24.20;99.90;;;;;;4934850;29;20673;-68
2022/12/20 05:26:23;;;;;;;4.47;1.10;;;24.50;99.90;;;;;;4935664;29;20369;-69
2022/12/20 05:28:51;;;;;;;4.87;1.20;;;24.30;99.90;;;;;;4934802;29;20184;-68
2022/12/20 05:31:19;;;;;;;6.53;1.00;;;24.10;99.90;;;;;;4935326;29;20207;-69
2022/12/20 05:33:46;;;;;;;4.93;1.07;;;23.70;99.90;;;;;;4935309;29;20172;-70
2022/12/20 05:36:14;;;;;;;6.63;1.40;;;23.50;99.90;;;;;;4934865;29;20176;-68
2022/12/20 05:38:41;;;;;;;5.27;1.27;;;23.40;99.90;;;;;;4935347;29;20653;-68
2022/12/20 05:41:09;;;;;;;5.63;1.07;;;23.40;99.90;;;;;;4935212;29;20214;-68
2022/12/20 05:43:36;;;;;;;7.60;1.70;;;23.50;99.90;;;;;;4934461;29;20232;-68
2022/12/20 05:46:03;;;;;;;4.80;1.23;;;23.80;99.90;;;;;;4935165;29;20211;-67
2022/12/20 05:48:31;;;;;;;6.87;1.40;;;24.20;99.90;;;;;;4934364;29;20189;-71
2022/12/20 05:50:58;;;;;;;6.90;1.27;;;23.90;99.90;;;;;;4934210;29;20197;-68
2022/12/20 05:53:26;;;;;;;2.00;0.90;;;23.60;99.90;;;;;;4934774;29;20705;-69
2022/12/20 05:55:54;;;;;;;4.90;1.10;;;23.70;99.90;;;;;;4935083;29;20192;-69
2022/12/20 05:58:25;;;;;;;4.17;1.13;;;23.50;99.90;;;;;;4934191;29;20686;-69
2022/12/20 06:00:53;;;;;;;10.10;1.53;;;23.30;99.90;;;;;;4934938;29;20194;-71
2022/12/20 06:03:20;;;;;;;4.30;1.00;;;22.90;99.90;;;;;;4935043;29;20184;-70
2022/12/20 06:05:49;;;;;;;6.90;1.43;;;22.60;99.90;;;;;;4933147;29;20593;-69
2022/12/20 06:08:16;;;;;;;4.43;1.13;;;22.50;99.90;;;;;;4917921;29;20196;-69
2022/12/20 06:10:44;;;;;;;6.37;1.53;;;22.40;99.90;;;;;;4934794;29;20659;-69
2022/12/20 06:13:11;;;;;;;6.07;1.40;;;22.40;99.90;;;;;;4934355;29;20180;-69
2022/12/20 06:15:39;;;;;;;5.90;1.10;;;22.60;99.90;;;;;;4934779;29;20185;-70
2022/12/20 06:18:06;;;;;;;7.33;1.33;;;23.20;99.90;;;;;;4934783;29;20191;-67
2022/12/20 06:20:38;;;;;;;3.80;1.27;;;23.90;99.90;;;;;;4934227;29;20183;-69
2022/12/20 06:23:06;;;;;;;6.77;1.30;;;24.10;99.90;;;;;;4917741;29;20192;-73
2022/12/20 06:25:38;;;;;;;8.07;1.27;;;24.20;99.90;;;;;;4935072;29;20702;-75
2022/12/20 06:28:06;;;;;;;4.13;1.40;;;24.40;99.90;;;;;;4934422;29;20180;-71
2022/12/20 06:30:34;;;;;;;4.70;0.87;;;24.30;99.90;;;;;;4934655;29;20560;-76
2022/12/20 06:33:02;;;;;;;5.63;1.00;;;24.30;99.90;;;;;;4934596;29;20616;-70
2022/12/20 06:35:31;;;;;;;4.27;0.93;;;24.20;99.90;;;;;;4939884;29;20702;-73
2022/12/20 06:37:59;;;;;;;4.03;1.00;;;24.10;99.90;;;;;;4939680;29;20189;-69
2022/12/20 06:40:26;;;;;;;3.97;1.27;;;24.10;99.90;;;;;;4940737;29;20555;-72
2022/12/20 06:42:53;;;;;;;4.87;1.10;;;23.70;99.90;;;;;;4940410;29;20715;-69
2022/12/20 06:45:21;;;;;;;7.53;1.63;;;23.60;99.90;;;;;;4939902;29;20246;-70
2022/12/20 06:47:48;;;;;;;18.33;2.57;;;23.70;99.90;;;;;;4940036;29;20234;-70
2022/12/20 06:50:16;;;;;;;5.93;1.23;;;23.70;99.90;;;;;;4939957;29;20218;-71
2022/12/20 06:52:43;;;;;;;15.00;2.30;;;23.70;99.90;;;;;;4938970;29;20192;-69
2022/12/20 06:55:11;;;;;;;2.20;0.73;;;23.70;99.90;;;;;;4939972;29;20238;-71
2022/12/20 06:57:38;;;;;;;4.90;1.17;;;23.50;99.90;;;;;;4939787;29;20248;-70
2022/12/20 07:00:07;;;;;;;2.83;1.10;;;23.60;99.90;;;;;;4941076;29;20192;-71
2022/12/20 07:02:35;;;;;;;2.00;0.70;;;23.00;99.90;;;;;;4940761;29;20274;-71
2022/12/20 07:05:02;;;;;;;5.97;1.13;;;22.60;99.90;;;;;;4939284;29;20665;-72
2022/12/20 07:07:30;;;;;;;2.70;0.87;;;21.90;99.90;;;;;;4940311;29;20303;-72
2022/12/20 07:09:58;;;;;;;4.03;0.70;;;21.60;99.90;;;;;;4941263;29;20188;-70
2022/12/20 07:12:25;;;;;;;2.50;0.90;;;21.40;99.90;;;;;;4941434;29;20184;-72
2022/12/20 07:14:53;;;;;;;6.00;0.93;;;21.30;99.90;;;;;;4941778;29;20204;-72
2022/12/20 07:17:21;;;;;;;2.20;1.10;;;21.10;99.90;;;;;;4941041;29;20549;-68
2022/12/20 07:19:48;;;;;;;3.47;1.00;;;21.00;99.90;;;;;;4941398;29;20195;-68
2022/12/20 07:22:16;;;;;;;3.60;0.80;;;21.30;99.90;;;;;;4940431;29;20266;-68
2022/12/20 07:24:43;;;;;;;1.93;0.73;;;21.70;99.90;;;;;;4941845;29;20180;-70
2022/12/20 07:27:11;;;;;;;4.43;1.23;;;21.70;99.90;;;;;;4941547;29;20212;-71
2022/12/20 07:29:40;;;;;;;4.43;1.33;;;21.60;99.90;;;;;;4941726;29;20497;-67
2022/12/20 07:32:08;;;;;;;3.37;1.20;;;21.70;99.90;;;;;;4941942;29;20575;-69
2022/12/20 07:34:37;;;;;;;5.87;0.90;;;21.90;99.90;;;;;;4941558;29;20233;-74
2022/12/20 07:37:07;;;;;;;2.10;0.80;;;21.80;99.90;;;;;;4941536;29;20243;-68
2022/12/20 07:39:35;;;;;;;5.13;0.97;;;21.80;99.90;;;;;;4941447;29;20214;-68
2022/12/20 07:42:02;;;;;;;3.30;0.70;;;21.70;99.90;;;;;;4941643;29;20214;-68
2022/12/20 07:44:29;;;;;;;6.63;0.90;;;21.60;99.90;;;;;;4939963;29;20644;-68
2022/12/20 07:46:57;;;;;;;2.17;0.87;;;21.50;99.90;;;;;;4938168;29;20353;-69
2022/12/20 07:49:24;;;;;;;4.33;1.03;;;21.50;99.90;;;;;;4938437;29;20260;-72
2022/12/20 07:52:00;;;;;;;3.77;0.90;;;21.30;99.90;;;;;;4938481;29;20259;-67
2022/12/20 07:54:34;;;;;;;2.40;0.70;;;21.40;99.90;;;;;;4938315;29;20332;-67
2022/12/20 07:57:14;;;;;;;6.23;1.27;;;21.30;99.90;;;;;;4938338;29;20183;-67
2022/12/20 07:59:48;;;;;;;4.77;1.03;;;21.30;99.90;;;;;;4938299;29;20181;-66
2022/12/20 08:02:39;;;;;;;3.00;0.60;;;21.20;99.90;;;;;;4938334;29;20177;-68
2022/12/20 08:05:08;;;;;;;3.33;1.00;;;21.20;99.90;;;;;;4938276;29;20181;-67
2022/12/20 08:07:38;;;;;;;1.60;0.77;;;21.20;99.90;;;;;;4938177;29;20235;-67
2022/12/20 08:10:08;;;;;;;2.60;0.80;;;21.10;99.90;;;;;;4938095;29;20221;-67
2022/12/20 08:12:37;;;;;;;1.70;0.70;;;21.10;99.90;;;;;;4938102;29;20193;-67
2022/12/20 08:15:05;;;;;;;1.60;0.50;;;21.10;99.90;;;;;;4938170;29;20181;-67
2022/12/20 08:17:33;;;;;;;1.50;0.53;;;21.00;99.90;;;;;;4938126;29;20180;-68
2022/12/20 08:20:01;;;;;;;4.27;1.53;;;21.00;99.90;;;;;;4937663;29;20181;-75
2022/12/20 08:22:29;;;;;;;3.10;0.80;;;20.90;99.90;;;;;;4937245;29;20192;-73
2022/12/20 08:24:57;;;;;;;4.07;0.80;;;20.70;99.90;;;;;;4936710;29;20527;-70
2022/12/20 08:27:24;;;;;;;2.37;0.70;;;20.60;99.90;;;;;;4936024;29;20211;-72
2022/12/20 08:29:52;;;;;;;2.27;0.80;;;20.40;99.90;;;;;;4937418;29;20179;-68
2022/12/20 08:32:20;;;;;;;2.60;0.70;;;20.30;99.90;;;;;;4937262;29;20212;-68
2022/12/20 08:34:48;;;;;;;3.17;0.90;;;20.10;99.90;;;;;;4935674;29;20184;-71
2022/12/20 08:37:19;;;;;;;1.63;0.60;;;19.90;99.90;;;;;;4937218;29;20562;-70
2022/12/20 08:39:47;;;;;;;5.03;0.63;;;19.80;99.90;;;;;;4937004;29;20248;-70
2022/12/20 08:42:15;;;;;;;3.53;0.60;;;19.70;99.90;;;;;;4937112;29;20198;-71
2022/12/20 08:44:43;;;;;;;2.73;0.73;;;19.50;99.90;;;;;;4936848;29;20703;-71
2022/12/20 08:47:11;;;;;;;7.30;0.80;;;19.50;99.90;;;;;;4936787;29;20220;-72
2022/12/20 08:49:39;;;;;;;1.90;0.67;;;19.30;99.90;;;;;;4936945;29;20196;-69
2022/12/20 08:52:07;;;;;;;2.90;0.87;;;19.20;99.90;;;;;;4936632;29;20184;-73
2022/12/20 08:54:34;;;;;;;3.13;0.63;;;19.10;99.90;;;;;;4936880;29;20269;-69
2022/12/20 08:57:02;;;;;;;2.07;0.80;;;19.00;99.90;;;;;;4935733;29;20199;-73
2022/12/20 08:59:30;;;;;;;2.00;0.60;;;19.00;99.90;;;;;;4936846;29;20191;-74
2022/12/20 09:01:58;;;;;;;2.20;0.70;;;18.90;99.90;;;;;;4937051;29;20266;-74
2022/12/20 09:04:25;;;;;;;2.93;0.60;;;18.80;99.90;;;;;;4936982;29;20186;-75
2022/12/20 09:06:53;;;;;;;1.40;0.60;;;18.70;99.90;;;;;;4936803;29;20258;-73
2022/12/20 09:09:21;;;;;;;1.90;0.60;;;18.60;99.90;;;;;;4936873;29;20193;-70
2022/12/20 09:11:49;;;;;;;1.87;0.67;;;18.50;99.90;;;;;;4936741;29;20195;-68
2022/12/20 09:14:17;;;;;;;4.80;1.00;;;18.40;99.90;;;;;;4936660;29;20173;-72
2022/12/20 09:16:45;;;;;;;2.07;0.77;;;18.30;99.90;;;;;;4936621;29;20204;-68
2022/12/20 09:19:14;;;;;;;3.60;0.90;;;18.30;99.90;;;;;;4936485;29;20176;-73
2022/12/20 09:21:42;;;;;;;2.43;0.70;;;18.20;99.90;;;;;;4936882;29;20180;-69
2022/12/20 09:26:55;;;;;;;4.60;1.50;;;18.00;99.90;;;;;;4936599;29;20236;-73
2022/12/20 09:29:22;;;;;;;4.00;1.00;;;17.90;99.90;;;;;;4936292;29;20173;-73
2022/12/20 09:31:50;;;;;;;2.23;0.73;;;17.90;99.90;;;;;;4936463;29;20627;-70
2022/12/20 09:34:17;;;;;;;3.43;0.80;;;17.80;99.90;;;;;;4936713;29;20645;-73
2022/12/20 09:36:45;;;;;;;2.83;0.67;;;17.70;99.90;;;;;;4951036;29;20652;-75
2022/12/20 09:39:12;;;;;;;4.63;0.70;;;17.60;99.90;;;;;;4936121;29;20180;-72
2022/12/20 09:41:44;;;;;;;1.97;1.00;;;17.60;99.90;;;;;;4936149;29;20192;-72
2022/12/20 09:44:23;;;;;;;5.10;0.90;;;17.50;99.90;;;;;;4934715;29;20647;-70
2022/12/20 09:47:07;;;;;;;5.60;0.90;;;17.50;99.90;;;;;;4936645;29;20220;-75
2022/12/20 09:49:39;;;;;;;1.87;0.87;;;17.50;99.90;;;;;;4935021;29;20217;-77
2022/12/20 09:52:36;;;;;;;5.77;0.60;;;17.50;99.90;;;;;;4936146;29;20169;-76
2022/12/20 09:55:22;;;;;;;4.03;1.00;;;17.60;99.90;;;;;;4936137;29;20235;-74
2022/12/20 09:57:52;;;;;;;5.87;1.10;;;17.60;99.90;;;;;;4936186;29;20267;-76
2022/12/20 10:00:20;;;;;;;3.13;0.80;;;17.50;99.90;;;;;;4936224;29;20177;-76
2022/12/20 10:02:49;;;;;;;4.13;1.10;;;17.40;99.90;;;;;;4936469;29;20228;-75
2022/12/20 10:05:42;;;;;;;4.33;1.00;;;17.40;99.90;;;;;;4936041;29;20208;-75
2022/12/20 10:08:39;;;;;;;3.77;0.90;;;17.30;99.90;;;;;;4925577;29;20630;-73
2022/12/20 10:11:44;;;;;;;3.73;0.87;;;17.20;99.90;;;;;;4936292;29;20240;-71
2022/12/20 10:14:45;;;;;;;5.30;1.33;;;17.20;99.90;;;;;;4935938;29;20195;-72
2022/12/20 10:17:43;;;;;;;3.17;0.93;;;17.10;99.90;;;;;;4934676;29;20236;-74
2022/12/20 10:20:47;;;;;;;3.67;1.20;;;17.10;99.90;;;;;;4936357;29;20177;-75
2022/12/20 10:23:35;;;;;;;1.43;0.90;;;17.00;99.90;;;;;;4935893;29;20172;-74
2022/12/20 10:26:07;;;;;;;4.20;0.77;;;16.90;99.90;;;;;;4935962;29;20251;-74
2022/12/20 10:28:36;;;;;;;3.60;1.07;;;16.80;99.90;;;;;;4936012;29;20185;-73
2022/12/20 10:31:12;;;;;;;4.80;0.80;;;16.80;99.90;;;;;;4936111;29;20191;-74
2022/12/20 10:33:40;;;;;;;3.30;1.20;;;16.70;99.90;;;;;;4936066;29;20188;-75
2022/12/20 10:36:30;;;;;;;3.43;0.90;;;16.70;99.90;;;;;;4936114;29;20191;-74
2022/12/20 10:39:00;;;;;;;4.13;0.90;;;16.60;99.90;;;;;;4936064;29;20181;-72
2022/12/20 10:41:31;;;;;;;3.30;0.90;;;16.50;99.90;;;;;;4935963;29;20208;-73
2022/12/20 10:44:03;;;;;;;1.87;0.90;;;16.50;99.90;;;;;;4936179;29;20647;-73
2022/12/20 10:46:46;;;;;;;1.97;1.00;;;16.50;99.90;;;;;;4935712;29;20212;-75
2022/12/20 10:49:33;;;;;;;4.03;1.00;;;16.40;99.90;;;;;;4935881;29;20271;-74
2022/12/20 10:52:09;;;;;;;2.23;0.80;;;16.40;99.90;;;;;;4935827;29;20211;-70
2022/12/20 10:54:41;;;;;;;3.73;1.00;;;16.30;99.90;;;;;;4935729;29;20633;-74
2022/12/20 10:57:32;;;;;;;2.87;0.70;;;16.30;99.90;;;;;;4935804;29;20189;-75
2022/12/20 11:00:07;;;;;;;4.60;0.73;;;16.20;99.90;;;;;;4935290;29;20180;-73
2022/12/20 11:02:38;;;;;;;4.27;0.80;;;16.20;99.90;;;;;;4932844;29;20304;-75
2022/12/20 11:05:13;;;;;;;7.27;1.13;;;16.20;99.90;;;;;;4934865;29;20569;-71
2022/12/20 11:07:56;;;;;;;3.50;1.00;;;16.10;99.90;;;;;;4934961;29;20220;-75
2022/12/20 11:10:26;;;;;;;4.00;1.27;;;16.00;99.90;;;;;;4934495;29;20191;-75
2022/12/20 11:12:55;;;;;;;3.13;0.90;;;15.90;99.90;;;;;;4935259;29;20185;-74
2022/12/20 11:15:31;;;;;;;2.17;0.90;;;15.90;99.90;;;;;;4935506;29;20639;-73
2022/12/20 11:18:37;;;;;;;1.93;0.80;;;15.90;99.90;;;;;;4935580;29;20236;-73
2022/12/20 11:21:26;;;;;;;2.33;1.27;;;15.80;99.90;;;;;;4875047;29;20207;-71
2022/12/20 11:24:19;;;;;;;4.03;0.73;;;15.70;99.90;;;;;;4939211;29;20212;-74
2022/12/20 11:26:49;;;;;;;5.20;0.80;;;15.70;99.90;;;;;;4930991;29;20702;-74
2022/12/20 11:30:13;;;;;;;3.90;0.90;;;15.60;99.90;;;;;;4939423;29;20173;-75
2022/12/20 11:32:58;;;;;;;4.10;1.20;;;15.50;99.90;;;;;;4862205;29;20195;-72
2022/12/20 11:35:45;;;;;;;2.73;0.80;;;15.40;99.90;;;;;;4862069;29;20187;-75
2022/12/20 11:38:30;;;;;;;3.90;1.20;;;15.40;99.90;;;;;;4929237;29;20271;-73
2022/12/20 11:41:20;;;;;;;4.23;1.00;;;15.30;99.90;;;;;;4938643;29;20189;-71
2022/12/20 11:44:05;;;;;;;4.60;0.97;;;15.30;99.90;;;;;;4938872;29;20294;-75
2022/12/20 11:46:54;;;;;;;3.47;1.10;;;15.20;99.90;;;;;;4937272;29;20227;-75
2022/12/20 11:49:42;;;;;;;2.77;1.00;;;15.20;99.90;;;;;;4939005;29;20231;-74
2022/12/20 11:52:27;;;;;;;6.33;1.20;;;15.20;99.90;;;;;;4939052;29;20188;-76
2022/12/20 11:55:28;;;;;;;2.47;0.93;;;15.20;99.90;;;;;;4938342;29;20321;-73
2022/12/20 11:58:10;;;;;;;3.63;1.10;;;15.20;99.90;;;;;;4937083;29;20201;-75
2022/12/20 12:00:41;;;;;;;1.20;0.73;;;15.20;99.90;;;;;;4938412;29;20195;-73
2022/12/20 12:03:39;;;;;;;2.70;1.10;;;15.20;99.90;;;;;;4938529;29;20263;-75
2022/12/20 12:06:33;;;;;;;4.10;1.20;;;15.20;99.90;;;;;;4937188;29;20225;-73
2022/12/20 12:09:24;;;;;;;2.57;1.03;;;15.20;99.90;;;;;;4936008;29;20267;-73
2022/12/20 12:12:09;;;;;;;1.93;1.10;;;15.20;99.90;;;;;;4937368;29;20181;-73
2022/12/20 12:14:55;;;;;;;4.33;1.13;;;15.20;99.90;;;;;;4935634;29;20215;-74
2022/12/20 12:17:48;;;;;;;2.67;1.37;;;15.30;99.90;;;;;;4938675;29;20191;-73
2022/12/20 12:20:51;;;;;;;1.90;1.10;;;15.30;99.90;;;;;;4938121;29;20180;-73
2022/12/20 12:23:59;;;;;;;4.03;1.60;;;15.40;99.90;;;;;;4938083;29;20275;-71
2022/12/20 12:26:34;;;;;;;2.30;1.10;;;15.50;99.90;;;;;;4860594;29;20218;-75
2022/12/20 12:29:10;;;;;;;5.43;1.17;;;15.50;99.90;;;;;;4930535;29;20192;-74
2022/12/20 12:31:57;;;;;;;3.13;1.20;;;15.50;99.90;;;;;;4937340;29;20176;-74
2022/12/20 12:34:54;;;;;;;2.97;1.07;;;15.40;99.90;;;;;;4938030;29;20275;-75
2022/12/20 12:37:31;;;;;;;4.03;1.00;;;15.50;99.90;;;;;;4937804;29;20181;-74
2022/12/20 12:40:22;;;;;;;2.60;0.67;;;15.50;99.90;;;;;;4937941;29;20208;-72
2022/12/20 12:42:59;;;;;;;5.27;1.13;;;15.40;99.90;;;;;;4937628;29;20201;-69
2022/12/20 12:45:36;;;;;;;2.33;0.90;;;15.50;99.90;;;;;;4937815;29;20182;-72
2022/12/20 12:48:27;;;;;;;2.70;0.87;;;15.50;99.90;;;;;;4937747;29;20219;-74
2022/12/20 12:50:58;;;;;;;5.70;1.17;;;15.50;99.90;;;;;;4920613;29;20276;-74
2022/12/20 12:53:49;;;;;;;1.93;0.80;;;15.50;99.90;;;;;;4936849;29;20216;-72
2022/12/20 12:56:30;;;;;;;5.40;1.03;;;15.40;99.90;;;;;;4937243;29;20192;-76
2022/12/20 12:59:08;;;;;;;1.90;0.80;;;15.50;99.90;;;;;;4937130;29;20188;-73
2022/12/20 13:02:03;;;;;;;3.87;1.00;;;15.50;99.90;;;;;;4937190;29;20191;-73
2022/12/20 13:04:53;;;;;;;2.50;0.87;;;15.60;99.90;;;;;;4935974;29;20221;-74
2022/12/20 13:07:34;;;;;;;3.07;0.70;;;15.80;99.90;;;;;;4937105;29;20220;-73
2022/12/20 13:10:28;;;;;;;3.50;0.80;;;15.80;99.90;;;;;;4937275;29;20224;-73
2022/12/20 13:13:11;;;;;;;2.67;1.00;;;15.90;99.90;;;;;;4909688;29;20557;-74
2022/12/20 13:15:50;;;;;;;6.37;1.40;;;16.00;99.90;;;;;;4918491;29;20530;-74
2022/12/20 13:19:04;;;;;;;3.63;1.33;;;16.00;99.90;;;;;;4916793;29;20185;-75
2022/12/20 13:21:36;;;;;;;4.37;0.90;;;16.10;99.90;;;;;;4900159;29;20256;-73
2022/12/20 13:24:43;;;;;;;4.60;1.50;;;16.20;99.90;;;;;;4936816;29;20662;-74
2022/12/20 13:27:29;;;;;;;1.93;1.10;;;16.20;99.90;;;;;;4937366;29;20671;-76
2022/12/20 13:30:01;;;;;;;3.63;1.23;;;16.10;99.90;;;;;;4936816;29;20235;-73
2022/12/20 13:33:02;;;;;;;2.23;0.83;;;16.10;99.90;;;;;;4936567;29;20529;-73